sensor_id;sensor_type;location;lat;lon;timestamp;pressure;altitude;pressure_sealevel;temperature;humidity
14041;BME280;7095;51.388;6.196;2023-05-10T00:02:39;115208.13;;;-145.32;100.00
14041;BME280;7095;51.388;6.196;2023-05-10T00:05:10;114949.09;;;-145.32;100.00
14041;BME280;7095;51.388;6.196;2023-05-10T00:07:39;114949.09;;;-145.32;100.00
14041;BME280;7095;51.388;6.196;2023-05-10T00:10:08;114949.09;;;-145.32;100.00
14041;BME280;7095;51.388;6.196;2023-05-10T00:12:37;114949.09;;;-145.32;100.00
14041;BME280;7095;51.388;6.196;2023-05-10T00:15:07;114949.09;;;-145.32;100.00
14041;BME280;7095;51.388;6.196;2023-05-10T00:17:35;114949.09;;;-145.32;100.00
14041;BME280;7095;51.388;6.196;2023-05-10T00:20:05;114690.03;;;-145.32;100.00
14041;BME280;7095;51.388;6.196;2023-05-10T00:22:35;114690.03;;;-145.32;100.00
14041;BME280;7095;51.388;6.196;2023-05-10T00:25:05;114949.09;;;-145.32;100.00
14041;BME280;7095;51.388;6.196;2023-05-10T00:27:34;114949.09;;;-145.32;100.00
14041;BME280;7095;51.388;6.196;2023-05-10T00:30:03;114949.09;;;-145.32;100.00
14041;BME280;7095;51.388;6.196;2023-05-10T00:32:31;114949.09;;;-145.32;100.00
14041;BME280;7095;51.388;6.196;2023-05-10T00:35:00;114949.09;;;-145.32;100.00
14041;BME280;7095;51.388;6.196;2023-05-10T00:37:28;114949.09;;;-145.32;100.00
14041;BME280;7095;51.388;6.196;2023-05-10T00:39:58;114949.09;;;-145.32;100.00
14041;BME280;7095;51.388;6.196;2023-05-10T00:42:27;114949.09;;;-145.32;100.00
14041;BME280;7095;51.388;6.196;2023-05-10T00:44:55;114949.09;;;-145.32;100.00
14041;BME280;7095;51.388;6.196;2023-05-10T00:47:24;114949.09;;;-145.32;100.00
14041;BME280;7095;51.388;6.196;2023-05-10T00:49:53;114949.09;;;-145.32;100.00
14041;BME280;7095;51.388;6.196;2023-05-10T00:52:23;115208.13;;;-145.32;100.00
14041;BME280;7095;51.388;6.196;2023-05-10T00:54:52;115208.13;;;-145.32;100.00
14041;BME280;7095;51.388;6.196;2023-05-10T00:57:22;115467.22;;;-145.32;100.00
14041;BME280;7095;51.388;6.196;2023-05-10T00:59:51;115467.22;;;-145.32;100.00
14041;BME280;7095;51.388;6.196;2023-05-10T01:02:20;115467.22;;;-145.32;100.00
14041;BME280;7095;51.388;6.196;2023-05-10T01:04:49;115467.22;;;-145.32;100.00
14041;BME280;7095;51.388;6.196;2023-05-10T01:07:19;115208.13;;;-145.32;100.00
14041;BME280;7095;51.388;6.196;2023-05-10T01:09:47;115208.13;;;-145.32;100.00
14041;BME280;7095;51.388;6.196;2023-05-10T01:12:16;115208.13;;;-145.32;100.00
14041;BME280;7095;51.388;6.196;2023-05-10T01:14:46;115467.22;;;-145.32;100.00
14041;BME280;7095;51.388;6.196;2023-05-10T01:17:16;115467.22;;;-145.32;100.00
14041;BME280;7095;51.388;6.196;2023-05-10T01:19:45;115467.22;;;-145.32;100.00
14041;BME280;7095;51.388;6.196;2023-05-10T01:22:33;115467.22;;;-145.32;100.00
14041;BME280;7095;51.388;6.196;2023-05-10T01:25:22;115467.22;;;-145.32;100.00
14041;BME280;7095;51.388;6.196;2023-05-10T01:28:28;115467.22;;;-145.32;100.00
14041;BME280;7095;51.388;6.196;2023-05-10T01:31:33;115467.22;;;-145.32;100.00
14041;BME280;7095;51.388;6.196;2023-05-10T01:34:09;115467.22;;;-145.32;100.00
14041;BME280;7095;51.388;6.196;2023-05-10T01:36:45;115467.22;;;-145.32;100.00
14041;BME280;7095;51.388;6.196;2023-05-10T01:39:20;115208.13;;;-145.32;100.00
14041;BME280;7095;51.388;6.196;2023-05-10T01:41:55;115208.13;;;-145.32;100.00
14041;BME280;7095;51.388;6.196;2023-05-10T01:44:31;115467.22;;;-145.32;100.00
14041;BME280;7095;51.388;6.196;2023-05-10T01:47:07;115467.22;;;-145.32;100.00
14041;BME280;7095;51.388;6.196;2023-05-10T01:49:45;115467.22;;;-145.32;100.00
14041;BME280;7095;51.388;6.196;2023-05-10T01:52:17;115467.22;;;-145.32;100.00
14041;BME280;7095;51.388;6.196;2023-05-10T01:54:50;115467.22;;;-145.32;100.00
14041;BME280;7095;51.388;6.196;2023-05-10T01:57:22;115467.22;;;-145.32;100.00
14041;BME280;7095;51.388;6.196;2023-05-10T01:59:55;115467.22;;;-145.32;100.00
14041;BME280;7095;51.388;6.196;2023-05-10T02:02:25;115467.22;;;-145.32;100.00
14041;BME280;7095;51.388;6.196;2023-05-10T02:04:57;115467.22;;;-145.32;100.00
14041;BME280;7095;51.388;6.196;2023-05-10T02:07:28;115726.31;;;-145.32;100.00
14041;BME280;7095;51.388;6.196;2023-05-10T02:09:57;115726.31;;;-145.32;100.00
14041;BME280;7095;51.388;6.196;2023-05-10T02:12:26;115726.31;;;-145.32;100.00
14041;BME280;7095;51.388;6.196;2023-05-10T02:14:59;115726.31;;;-145.32;100.00
14041;BME280;7095;51.388;6.196;2023-05-10T02:17:30;115726.31;;;-145.32;100.00
14041;BME280;7095;51.388;6.196;2023-05-10T02:20:03;115726.31;;;-145.32;100.00
14041;BME280;7095;51.388;6.196;2023-05-10T02:22:35;115726.31;;;-145.32;100.00
14041;BME280;7095;51.388;6.196;2023-05-10T02:25:07;115726.31;;;-145.32;100.00
14041;BME280;7095;51.388;6.196;2023-05-10T02:27:37;115726.31;;;-145.32;100.00
14041;BME280;7095;51.388;6.196;2023-05-10T02:30:08;115726.31;;;-145.32;100.00
14041;BME280;7095;51.388;6.196;2023-05-10T02:32:37;115726.31;;;-145.32;100.00
14041;BME280;7095;51.388;6.196;2023-05-10T02:35:09;115726.31;;;-145.32;100.00
14041;BME280;7095;51.388;6.196;2023-05-10T02:37:40;115726.31;;;-145.32;100.00
14041;BME280;7095;51.388;6.196;2023-05-10T02:40:10;115726.31;;;-145.32;100.00
14041;BME280;7095;51.388;6.196;2023-05-10T02:42:41;115726.31;;;-145.32;100.00
14041;BME280;7095;51.388;6.196;2023-05-10T02:45:13;115728.34;;;-145.32;100.00
14041;BME280;7095;51.388;6.196;2023-05-10T02:47:43;115728.34;;;-145.32;100.00
14041;BME280;7095;51.388;6.196;2023-05-10T02:50:13;115728.34;;;-145.32;100.00
14041;BME280;7095;51.388;6.196;2023-05-10T02:52:46;115728.34;;;-145.32;100.00
14041;BME280;7095;51.388;6.196;2023-05-10T02:55:19;115728.34;;;-145.32;100.00
14041;BME280;7095;51.388;6.196;2023-05-10T02:57:52;115728.34;;;-145.32;100.00
14041;BME280;7095;51.388;6.196;2023-05-10T03:00:24;115728.34;;;-145.32;100.00
14041;BME280;7095;51.388;6.196;2023-05-10T03:02:53;115728.34;;;-145.32;100.00
14041;BME280;7095;51.388;6.196;2023-05-10T03:05:23;115728.34;;;-145.32;100.00
14041;BME280;7095;51.388;6.196;2023-05-10T03:07:53;115728.34;;;-145.32;100.00
14041;BME280;7095;51.388;6.196;2023-05-10T03:10:27;115728.34;;;-145.32;100.00
14041;BME280;7095;51.388;6.196;2023-05-10T03:13:06;115728.34;;;-145.32;100.00
14041;BME280;7095;51.388;6.196;2023-05-10T03:15:42;115728.34;;;-145.32;100.00
14041;BME280;7095;51.388;6.196;2023-05-10T03:18:20;115728.34;;;-145.32;100.00
14041;BME280;7095;51.388;6.196;2023-05-10T03:20:56;115728.34;;;-145.32;100.00
14041;BME280;7095;51.388;6.196;2023-05-10T03:23:27;115728.34;;;-145.32;100.00
14041;BME280;7095;51.388;6.196;2023-05-10T03:25:59;115728.34;;;-145.32;100.00
14041;BME280;7095;51.388;6.196;2023-05-10T03:28:30;115728.34;;;-145.32;100.00
14041;BME280;7095;51.388;6.196;2023-05-10T03:31:00;115728.34;;;-145.32;100.00
14041;BME280;7095;51.388;6.196;2023-05-10T03:33:30;115728.34;;;-145.32;100.00
14041;BME280;7095;51.388;6.196;2023-05-10T03:36:01;115728.34;;;-145.32;100.00
14041;BME280;7095;51.388;6.196;2023-05-10T03:38:29;115728.34;;;-145.32;100.00
14041;BME280;7095;51.388;6.196;2023-05-10T03:40:58;115728.34;;;-145.32;100.00
14041;BME280;7095;51.388;6.196;2023-05-10T03:43:27;115728.34;;;-145.32;100.00
14041;BME280;7095;51.388;6.196;2023-05-10T03:45:55;115728.34;;;-145.32;100.00
14041;BME280;7095;51.388;6.196;2023-05-10T03:48:24;115728.34;;;-145.32;100.00
14041;BME280;7095;51.388;6.196;2023-05-10T03:50:52;115728.34;;;-145.32;100.00
14041;BME280;7095;51.388;6.196;2023-05-10T03:53:23;115728.34;;;-145.32;100.00
14041;BME280;7095;51.388;6.196;2023-05-10T03:55:51;115728.34;;;-145.32;100.00
14041;BME280;7095;51.388;6.196;2023-05-10T03:58:20;115728.34;;;-145.32;100.00
14041;BME280;7095;51.388;6.196;2023-05-10T04:00:49;115728.34;;;-145.32;100.00
14041;BME280;7095;51.388;6.196;2023-05-10T04:03:17;115728.34;;;-145.32;100.00
14041;BME280;7095;51.388;6.196;2023-05-10T04:05:47;115728.34;;;-145.32;100.00
14041;BME280;7095;51.388;6.196;2023-05-10T04:08:15;115728.34;;;-145.32;100.00
14041;BME280;7095;51.388;6.196;2023-05-10T04:10:46;115728.34;;;-145.32;100.00
14041;BME280;7095;51.388;6.196;2023-05-10T04:13:14;115728.34;;;-145.32;100.00
14041;BME280;7095;51.388;6.196;2023-05-10T04:15:43;115728.34;;;-145.32;100.00
14041;BME280;7095;51.388;6.196;2023-05-10T04:18:12;115728.34;;;-145.32;100.00
14041;BME280;7095;51.388;6.196;2023-05-10T04:20:41;115728.34;;;-145.32;100.00
14041;BME280;7095;51.388;6.196;2023-05-10T04:23:10;115728.34;;;-145.32;100.00
14041;BME280;7095;51.388;6.196;2023-05-10T04:25:38;115728.34;;;-145.32;100.00
14041;BME280;7095;51.388;6.196;2023-05-10T04:28:08;115728.34;;;-145.32;100.00
14041;BME280;7095;51.388;6.196;2023-05-10T04:30:38;115726.31;;;-145.32;100.00
14041;BME280;7095;51.388;6.196;2023-05-10T04:33:07;115726.31;;;-145.32;100.00
14041;BME280;7095;51.388;6.196;2023-05-10T04:35:36;115467.22;;;-145.32;100.00
14041;BME280;7095;51.388;6.196;2023-05-10T04:38:04;115467.22;;;-145.32;100.00
14041;BME280;7095;51.388;6.196;2023-05-10T04:40:33;115467.22;;;-145.32;100.00
14041;BME280;7095;51.388;6.196;2023-05-10T04:43:01;115467.22;;;-145.32;100.00
14041;BME280;7095;51.388;6.196;2023-05-10T04:45:31;115467.22;;;-145.32;100.00
14041;BME280;7095;51.388;6.196;2023-05-10T04:48:00;115467.22;;;-145.32;100.00
14041;BME280;7095;51.388;6.196;2023-05-10T04:50:28;115467.22;;;-145.32;100.00
14041;BME280;7095;51.388;6.196;2023-05-10T04:52:57;115467.22;;;-145.32;100.00
14041;BME280;7095;51.388;6.196;2023-05-10T04:55:26;115467.22;;;-145.32;100.00
14041;BME280;7095;51.388;6.196;2023-05-10T04:57:55;115467.22;;;-145.32;100.00
14041;BME280;7095;51.388;6.196;2023-05-10T05:00:24;115467.22;;;-145.32;100.00
14041;BME280;7095;51.388;6.196;2023-05-10T05:02:54;115208.13;;;-145.32;100.00
14041;BME280;7095;51.388;6.196;2023-05-10T05:05:23;115467.22;;;-145.32;100.00
14041;BME280;7095;51.388;6.196;2023-05-10T05:07:51;115467.22;;;-145.32;100.00
14041;BME280;7095;51.388;6.196;2023-05-10T05:10:20;115467.22;;;-145.32;100.00
14041;BME280;7095;51.388;6.196;2023-05-10T05:12:49;115467.22;;;-145.32;100.00
14041;BME280;7095;51.388;6.196;2023-05-10T05:15:18;115467.22;;;-145.32;100.00
14041;BME280;7095;51.388;6.196;2023-05-10T05:17:46;115467.22;;;-145.32;100.00
14041;BME280;7095;51.388;6.196;2023-05-10T05:20:17;115467.22;;;-145.32;100.00
14041;BME280;7095;51.388;6.196;2023-05-10T05:22:46;115467.22;;;-145.32;100.00
14041;BME280;7095;51.388;6.196;2023-05-10T05:25:15;115467.22;;;-145.32;100.00
14041;BME280;7095;51.388;6.196;2023-05-10T05:27:44;115467.22;;;-145.32;100.00
14041;BME280;7095;51.388;6.196;2023-05-10T05:30:13;115467.22;;;-145.32;100.00
14041;BME280;7095;51.388;6.196;2023-05-10T05:32:42;115467.22;;;-145.32;100.00
14041;BME280;7095;51.388;6.196;2023-05-10T05:35:10;115467.22;;;-145.32;100.00
14041;BME280;7095;51.388;6.196;2023-05-10T05:37:40;115467.22;;;-145.32;100.00
14041;BME280;7095;51.388;6.196;2023-05-10T05:40:12;115467.22;;;-145.32;100.00
14041;BME280;7095;51.388;6.196;2023-05-10T05:42:41;115467.22;;;-145.32;100.00
14041;BME280;7095;51.388;6.196;2023-05-10T05:45:10;115467.22;;;-145.32;100.00
14041;BME280;7095;51.388;6.196;2023-05-10T05:47:41;115726.31;;;-145.32;100.00
14041;BME280;7095;51.388;6.196;2023-05-10T05:50:11;115467.22;;;-145.32;100.00
14041;BME280;7095;51.388;6.196;2023-05-10T05:52:41;115467.22;;;-145.32;100.00
14041;BME280;7095;51.388;6.196;2023-05-10T05:55:10;115467.22;;;-145.32;100.00
14041;BME280;7095;51.388;6.196;2023-05-10T05:57:40;115467.22;;;-145.32;100.00
14041;BME280;7095;51.388;6.196;2023-05-10T06:00:09;115467.22;;;-145.32;100.00
14041;BME280;7095;51.388;6.196;2023-05-10T06:02:40;115467.22;;;-145.32;100.00
14041;BME280;7095;51.388;6.196;2023-05-10T06:05:09;115208.13;;;-145.32;100.00
14041;BME280;7095;51.388;6.196;2023-05-10T06:07:38;115467.22;;;-145.32;100.00
14041;BME280;7095;51.388;6.196;2023-05-10T06:10:10;115208.13;;;-145.32;100.00
14041;BME280;7095;51.388;6.196;2023-05-10T06:12:39;115467.22;;;-145.32;100.00
14041;BME280;7095;51.388;6.196;2023-05-10T06:15:09;115208.13;;;-145.32;100.00
14041;BME280;7095;51.388;6.196;2023-05-10T06:17:38;114949.09;;;-145.32;100.00
14041;BME280;7095;51.388;6.196;2023-05-10T06:20:08;114949.09;;;-145.32;100.00
14041;BME280;7095;51.388;6.196;2023-05-10T06:22:37;114949.09;;;-145.32;100.00
14041;BME280;7095;51.388;6.196;2023-05-10T06:25:06;114949.09;;;-145.32;100.00
14041;BME280;7095;51.388;6.196;2023-05-10T06:27:37;114690.03;;;-145.32;100.00
14041;BME280;7095;51.388;6.196;2023-05-10T06:30:07;114690.03;;;-145.32;100.00
14041;BME280;7095;51.388;6.196;2023-05-10T06:32:39;114949.09;;;-145.32;100.00
14041;BME280;7095;51.388;6.196;2023-05-10T06:35:09;114949.09;;;-145.32;100.00
14041;BME280;7095;51.388;6.196;2023-05-10T06:37:37;114690.03;;;-145.32;100.00
14041;BME280;7095;51.388;6.196;2023-05-10T06:40:07;114431.03;;;-145.32;100.00
14041;BME280;7095;51.388;6.196;2023-05-10T06:42:37;114431.03;;;-145.32;100.00
14041;BME280;7095;51.388;6.196;2023-05-10T06:45:07;114172.03;;;-145.32;100.00
14041;BME280;7095;51.388;6.196;2023-05-10T06:47:36;114690.03;;;-145.32;100.00
14041;BME280;7095;51.388;6.196;2023-05-10T06:50:06;114690.03;;;-145.32;100.00
14041;BME280;7095;51.388;6.196;2023-05-10T06:52:35;114172.03;;;-145.32;100.00
14041;BME280;7095;51.388;6.196;2023-05-10T06:55:05;114431.03;;;-145.32;100.00
14041;BME280;7095;51.388;6.196;2023-05-10T06:57:33;114172.03;;;-145.32;100.00
14041;BME280;7095;51.388;6.196;2023-05-10T07:00:05;113654.06;;;-145.32;100.00
14041;BME280;7095;51.388;6.196;2023-05-10T07:02:34;112359.53;;;-145.32;100.00
14041;BME280;7095;51.388;6.196;2023-05-10T07:05:03;112359.53;;;-145.32;100.00
14041;BME280;7095;51.388;6.196;2023-05-10T07:07:32;112359.53;;;-145.32;100.00
14041;BME280;7095;51.388;6.196;2023-05-10T07:10:00;112100.69;;;-145.32;100.00
14041;BME280;7095;51.388;6.196;2023-05-10T07:12:29;112100.69;;;-145.32;100.00
14041;BME280;7095;51.388;6.196;2023-05-10T07:14:58;111583.06;;;-145.32;100.00
14041;BME280;7095;51.388;6.196;2023-05-10T07:17:28;110806.75;;;-145.32;100.00
14041;BME280;7095;51.388;6.196;2023-05-10T07:19:59;110548.00;;;-145.32;100.00
14041;BME280;7095;51.388;6.196;2023-05-10T07:22:28;108996.00;;;-145.32;100.00
14041;BME280;7095;51.388;6.196;2023-05-10T07:24:57;109254.63;;;-145.32;100.00
14041;BME280;7095;51.388;6.196;2023-05-10T07:27:25;108737.41;;;-145.32;100.00
14041;BME280;7095;51.388;6.196;2023-05-10T07:29:54;108478.84;;;-145.32;100.00
14041;BME280;7095;51.388;6.196;2023-05-10T07:32:23;107703.22;;;-145.32;100.00
14041;BME280;7095;51.388;6.196;2023-05-10T07:34:54;109771.94;;;-145.32;100.00
14041;BME280;7095;51.388;6.196;2023-05-10T07:37:24;106410.88;;;-145.32;100.00
14041;BME280;7095;51.388;6.196;2023-05-10T07:39:56;108220.28;;;-145.32;100.00
14041;BME280;7095;51.388;6.196;2023-05-10T07:42:25;106152.47;;;-145.32;100.00
14041;BME280;7095;51.388;6.196;2023-05-10T07:44:53;103053.06;;;-145.32;100.00
14041;BME280;7095;51.388;6.196;2023-05-10T07:47:22;103053.06;;;-145.32;100.00
14041;BME280;7095;51.388;6.196;2023-05-10T07:49:53;101762.47;;;-145.32;100.00
14041;BME280;7095;51.388;6.196;2023-05-10T07:52:22;103311.25;;;-145.32;100.00
14041;BME280;7095;51.388;6.196;2023-05-10T07:54:50;102020.53;;;-145.32;100.00
14041;BME280;7095;51.388;6.196;2023-05-10T07:57:19;100988.31;;;-145.32;100.00
14041;BME280;7095;51.388;6.196;2023-05-10T07:59:48;96862.50;;;-145.32;100.00
14041;BME280;7095;51.388;6.196;2023-05-10T08:02:16;96089.47;;;-145.32;100.00
14041;BME280;7095;51.388;6.196;2023-05-10T08:04:45;96347.13;;;-145.32;100.00
14041;BME280;7095;51.388;6.196;2023-05-10T08:07:15;96604.81;;;-145.32;100.00
14041;BME280;7095;51.388;6.196;2023-05-10T08:09:44;95574.19;;;-145.32;100.00
14041;BME280;7095;51.388;6.196;2023-05-10T08:12:12;95316.59;;;-145.32;100.00
14041;BME280;7095;51.388;6.196;2023-05-10T08:14:41;92741.59;;;-145.32;100.00
14041;BME280;7095;51.388;6.196;2023-05-10T08:17:09;93771.38;;;-145.32;100.00
14041;BME280;7095;51.388;6.196;2023-05-10T08:19:38;94543.91;;;-145.32;100.00
14041;BME280;7095;51.388;6.196;2023-05-10T08:22:07;95574.19;;;-145.32;100.00
14041;BME280;7095;51.388;6.196;2023-05-10T08:24:37;93513.91;;;-145.32;100.00
14041;BME280;7095;51.388;6.196;2023-05-10T08:27:06;93771.38;;;-145.32;100.00
14041;BME280;7095;51.388;6.196;2023-05-10T08:29:34;93771.38;;;-145.32;100.00
14041;BME280;7095;51.388;6.196;2023-05-10T08:32:16;93513.91;;;-145.32;100.00
14041;BME280;7095;51.388;6.196;2023-05-10T08:34:44;93513.91;;;-145.32;100.00
14041;BME280;7095;51.388;6.196;2023-05-10T08:37:13;90425.72;;;-145.32;100.00
14041;BME280;7095;51.388;6.196;2023-05-10T08:39:43;91197.50;;;-145.32;100.00
14041;BME280;7095;51.388;6.196;2023-05-10T08:42:16;93513.91;;;-145.32;100.00
14041;BME280;7095;51.388;6.196;2023-05-10T08:44:48;93513.91;;;-145.32;100.00
14041;BME280;7095;51.388;6.196;2023-05-10T08:47:18;93771.38;;;-145.32;100.00
14041;BME280;7095;51.388;6.196;2023-05-10T08:49:47;95059.00;;;-145.32;100.00
14041;BME280;7095;51.388;6.196;2023-05-10T08:52:18;95574.19;;;-145.32;100.00
14041;BME280;7095;51.388;6.196;2023-05-10T08:54:48;94543.91;;;-145.32;100.00
14041;BME280;7095;51.388;6.196;2023-05-10T08:57:18;95059.00;;;-145.32;100.00
14041;BME280;7095;51.388;6.196;2023-05-10T08:59:47;94028.84;;;-145.32;100.00
14041;BME280;7095;51.388;6.196;2023-05-10T09:02:16;92999.00;;;-145.32;100.00
14041;BME280;7095;51.388;6.196;2023-05-10T09:04:47;92226.81;;;-145.32;100.00
14041;BME280;7095;51.388;6.196;2023-05-10T09:07:16;91197.50;;;-145.32;100.00
14041;BME280;7095;51.388;6.196;2023-05-10T09:09:45;90682.97;;;-145.32;100.00
14041;BME280;7095;51.388;6.196;2023-05-10T09:12:16;91712.13;;;-145.32;100.00
14041;BME280;7095;51.388;6.196;2023-05-10T09:14:44;91712.13;;;-145.32;100.00
14041;BME280;7095;51.388;6.196;2023-05-10T09:17:14;90168.50;;;-145.32;100.00
14041;BME280;7095;51.388;6.196;2023-05-10T09:19:45;89911.31;;;-145.32;100.00
14041;BME280;7095;51.388;6.196;2023-05-10T09:22:13;86312.47;;;-145.32;100.00
14041;BME280;7095;51.388;6.196;2023-05-10T09:24:42;87083.34;;;-145.32;100.00
14041;BME280;7095;51.388;6.196;2023-05-10T09:27:12;86826.34;;;-145.32;100.00
14041;BME280;7095;51.388;6.196;2023-05-10T09:29:43;86569.41;;;-145.32;100.00
14041;BME280;7095;51.388;6.196;2023-05-10T09:32:12;84771.25;;;-145.32;100.00
14041;BME280;7095;51.388;6.196;2023-05-10T09:34:42;86055.56;;;-145.32;100.00
14041;BME280;7095;51.388;6.196;2023-05-10T09:37:10;84257.66;;;-145.32;100.00
14041;BME280;7095;51.388;6.196;2023-05-10T09:39:39;84000.91;;;-145.32;100.00
14041;BME280;7095;51.388;6.196;2023-05-10T09:42:09;84257.66;;;-145.32;100.00
14041;BME280;7095;51.388;6.196;2023-05-10T09:44:38;84000.91;;;-145.32;100.00
14041;BME280;7095;51.388;6.196;2023-05-10T09:47:09;84514.44;;;-145.32;100.00
14041;BME280;7095;51.388;6.196;2023-05-10T09:49:38;84771.25;;;-145.32;100.00
14041;BME280;7095;51.388;6.196;2023-05-10T09:52:07;87597.34;;;-145.32;100.00
14041;BME280;7095;51.388;6.196;2023-05-10T09:54:36;88368.50;;;-145.32;100.00
14041;BME280;7095;51.388;6.196;2023-05-10T09:57:05;88882.69;;;-145.32;100.00
14041;BME280;7095;51.388;6.196;2023-05-10T09:59:33;89911.31;;;-145.32;100.00
14041;BME280;7095;51.388;6.196;2023-05-10T10:02:03;87854.38;;;-145.32;100.00
14041;BME280;7095;51.388;6.196;2023-05-10T10:04:39;87854.38;;;-145.32;100.00
14041;BME280;7095;51.388;6.196;2023-05-10T10:07:08;88625.56;;;-145.32;100.00
14041;BME280;7095;51.388;6.196;2023-05-10T10:09:37;89654.13;;;-145.32;100.00
14041;BME280;7095;51.388;6.196;2023-05-10T10:12:07;89139.81;;;-145.32;100.00
14041;BME280;7095;51.388;6.196;2023-05-10T10:14:35;89911.31;;;-145.32;100.00
14041;BME280;7095;51.388;6.196;2023-05-10T10:17:04;89139.81;;;-145.32;100.00
14041;BME280;7095;51.388;6.196;2023-05-10T10:19:36;90682.97;;;-145.32;100.00
14041;BME280;7095;51.388;6.196;2023-05-10T10:22:05;91197.50;;;-145.32;100.00
14041;BME280;7095;51.388;6.196;2023-05-10T10:24:34;91969.47;;;-145.32;100.00
14041;BME280;7095;51.388;6.196;2023-05-10T10:27:09;91712.13;;;-145.32;100.00
14041;BME280;7095;51.388;6.196;2023-05-10T10:29:47;92999.00;;;-145.32;100.00
14041;BME280;7095;51.388;6.196;2023-05-10T10:32:24;95574.19;;;-145.32;100.00
14041;BME280;7095;51.388;6.196;2023-05-10T10:34:56;95316.59;;;-145.32;100.00
14041;BME280;7095;51.388;6.196;2023-05-10T10:37:43;96862.50;;;-145.32;100.00
14041;BME280;7095;51.388;6.196;2023-05-10T10:40:26;97635.72;;;-145.32;100.00
14041;BME280;7095;51.388;6.196;2023-05-10T10:42:56;92999.00;;;-145.32;100.00
14041;BME280;7095;51.388;6.196;2023-05-10T10:45:25;91969.47;;;-145.32;100.00
14041;BME280;7095;51.388;6.196;2023-05-10T10:48:33;93256.44;;;-145.32;100.00
14041;BME280;7095;51.388;6.196;2023-05-10T10:51:04;93513.91;;;-145.32;100.00
14041;BME280;7095;51.388;6.196;2023-05-10T10:53:34;89396.97;;;-145.32;100.00
14041;BME280;7095;51.388;6.196;2023-05-10T10:56:07;87083.34;;;-145.32;100.00
14041;BME280;7095;51.388;6.196;2023-05-10T10:58:38;86826.34;;;-145.32;100.00
14041;BME280;7095;51.388;6.196;2023-05-10T11:01:17;85798.66;;;-145.32;100.00
14041;BME280;7095;51.388;6.196;2023-05-10T11:04:18;84257.66;;;-145.32;100.00
14041;BME280;7095;51.388;6.196;2023-05-10T11:06:50;82974.03;;;-145.32;100.00
14041;BME280;7095;51.388;6.196;2023-05-10T11:09:19;85284.91;;;-145.32;100.00
14041;BME280;7095;51.388;6.196;2023-05-10T11:11:52;83744.16;;;-145.32;100.00
14041;BME280;7095;51.388;6.196;2023-05-10T11:14:22;82717.38;;;-145.32;100.00
14041;BME280;7095;51.388;6.196;2023-05-10T11:16:53;80921.25;;;-145.32;100.00
14041;BME280;7095;51.388;6.196;2023-05-10T11:19:27;78613.28;;;-145.32;100.00
14041;BME280;7095;51.388;6.196;2023-05-10T11:22:15;75794.56;;;-145.32;100.00
14041;BME280;7095;51.388;6.196;2023-05-10T11:24:56;68150.88;;;-145.32;100.00
14041;BME280;7095;51.388;6.196;2023-05-10T11:27:26;68140.88;;;-145.32;100.00
14041;BME280;7095;51.388;6.196;2023-05-10T11:29:54;67737.59;;;-145.32;100.00
14041;BME280;7095;51.388;6.196;2023-05-10T11:32:24;67320.38;;;-145.32;100.00
14041;BME280;7095;51.388;6.196;2023-05-10T11:34:52;65540.25;;;-145.32;100.00
14041;BME280;7095;51.388;6.196;2023-05-10T11:37:22;64913.84;;;-145.32;100.00
14041;BME280;7095;51.388;6.196;2023-05-10T11:39:51;61837.34;;;-145.32;100.00
14041;BME280;7095;51.388;6.196;2023-05-10T11:42:23;61289.31;;;-145.32;100.00
14041;BME280;7095;51.388;6.196;2023-05-10T11:44:51;60765.28;;;-145.32;100.00
14041;BME280;7095;51.388;6.196;2023-05-10T11:47:20;60187.56;;;-145.32;100.00
14041;BME280;7095;51.388;6.196;2023-05-10T11:49:50;59412.78;;;-145.32;100.00
14041;BME280;7095;51.388;6.196;2023-05-10T11:52:19;59281.34;;;-145.32;100.00
14041;BME280;7095;51.388;6.196;2023-05-10T11:54:52;58464.94;;;-145.32;100.00
14041;BME280;7095;51.388;6.196;2023-05-10T11:57:26;57254.63;;;-145.32;100.00
14041;BME280;7095;51.388;6.196;2023-05-10T11:59:56;56830.75;;;-145.32;100.00
14041;BME280;7095;51.388;6.196;2023-05-10T12:02:25;56693.44;;;-145.32;100.00
14041;BME280;7095;51.388;6.196;2023-05-10T12:04:55;56323.31;;;-145.32;100.00
14041;BME280;7095;51.388;6.196;2023-05-10T12:07:26;56534.25;;;-145.32;100.00
14041;BME280;7095;51.388;6.196;2023-05-10T12:10:08;56520.31;;;-145.32;100.00
14041;BME280;7095;51.388;6.196;2023-05-10T12:12:38;57298.44;;;-145.32;100.00
14041;BME280;7095;51.388;6.196;2023-05-10T12:15:16;57061.59;;;-145.32;100.00
14041;BME280;7095;51.388;6.196;2023-05-10T12:17:47;57075.53;;;-145.32;100.00
14041;BME280;7095;51.388;6.196;2023-05-10T12:20:17;57220.81;;;-145.32;100.00
14041;BME280;7095;51.388;6.196;2023-05-10T12:22:49;56601.91;;;-145.32;100.00
14041;BME280;7095;51.388;6.196;2023-05-10T12:25:21;55993.06;;;-145.32;100.00
14041;BME280;7095;51.388;6.196;2023-05-10T12:27:52;56012.94;;;-145.32;100.00
14041;BME280;7095;51.388;6.196;2023-05-10T12:30:23;55827.91;;;-145.32;100.00
14041;BME280;7095;51.388;6.196;2023-05-10T12:32:53;55694.63;;;-145.32;100.00
14041;BME280;7095;51.388;6.196;2023-05-10T12:35:22;55418.13;;;-145.32;100.00
14041;BME280;7095;51.388;6.196;2023-05-10T12:37:51;55483.78;;;-145.32;100.00
14041;BME280;7095;51.388;6.196;2023-05-10T12:40:21;55205.28;;;-145.32;100.00
14041;BME280;7095;51.388;6.196;2023-05-10T12:42:50;55213.25;;;-145.32;100.00
14041;BME280;7095;51.388;6.196;2023-05-10T12:45:19;55328.63;;;-145.32;100.00
14041;BME280;7095;51.388;6.196;2023-05-10T12:47:49;55081.97;;;-145.32;100.00
14041;BME280;7095;51.388;6.196;2023-05-10T12:50:18;54926.84;;;-145.32;100.00
14041;BME280;7095;51.388;6.196;2023-05-10T12:52:46;54942.75;;;-145.32;100.00